Vilna, Canada
Current Conditions -  °F | °C
As of 3:00 PM on Sunday 25 Jan 2015 (Local Time) from CYOD Reporting Station
Broken Clouds Broken Clouds  
Wind Chill: 43°   Ceiling: 25000
Heat Index: 48°   Visibility: 15mi
Dew Point: 30°   Wind: 14mph
Humidity: 50%   Direction: 280°W
Pressure: 29.61"   Gusts: 21mph
Location:  54.12°N, 111.92°W
Report Text: CYOD 252200Z 28012G18KT 15SM FEW170 BKN250 09/M01 A2961 RMKAC1CI1 SLP046
Loading
Personal Weather Stations






























Interactive Weather Map New forecast layout! Learn more

10-Day Weather Forecast

Advertisements
Track Severe Weather on mobile